createdAt,value
2017-10-02T00:05:58.000Z,1007.675
2017-10-02T00:15:56.000Z,1007.436
2017-10-02T00:25:56.000Z,1007.264
2017-10-02T00:35:56.000Z,1007.243
2017-10-02T00:45:56.000Z,1007.132
2017-10-02T00:55:56.000Z,1007.112
2017-10-02T01:05:56.000Z,1006.786
2017-10-02T01:15:56.000Z,1006.704
2017-10-02T01:25:56.000Z,1006.163
2017-10-02T01:35:56.000Z,1005.91
2017-10-02T01:45:56.000Z,1005.765
2017-10-02T01:55:56.000Z,1005.708
2017-10-02T02:05:56.000Z,1005.561
2017-10-02T02:15:56.000Z,1005.523
2017-10-02T02:25:56.000Z,1005.232
2017-10-02T02:35:56.000Z,1005.261
2017-10-02T02:45:56.000Z,1005.31
2017-10-02T02:55:56.000Z,1005.474
2017-10-02T03:05:56.000Z,1005.35
2017-10-02T03:15:56.000Z,1005.307
2017-10-02T03:25:56.000Z,1005.254
2017-10-02T03:35:56.000Z,1005.203
2017-10-02T03:45:56.000Z,1005.162
2017-10-02T03:55:56.000Z,1004.977
2017-10-02T04:05:56.000Z,1004.908
2017-10-02T04:15:56.000Z,1004.889
2017-10-02T04:25:56.000Z,1004.872
2017-10-02T04:35:56.000Z,1004.838
2017-10-02T04:45:56.000Z,1004.594
2017-10-02T04:55:56.000Z,1004.548
2017-10-02T05:05:56.000Z,1004.497
2017-10-02T05:15:56.000Z,1004.387
2017-10-02T05:25:57.000Z,1004.304
2017-10-02T05:35:57.000Z,1004.349
2017-10-02T05:45:57.000Z,1004.167
2017-10-02T05:55:57.000Z,1004.053
2017-10-02T06:05:57.000Z,1004.012
2017-10-02T06:15:57.000Z,1004.063
2017-10-02T06:25:57.000Z,1004.362
2017-10-02T06:35:57.000Z,1004.202
2017-10-02T06:45:57.000Z,1004.083
2017-10-02T06:55:57.000Z,1004.129
2017-10-02T07:05:57.000Z,1003.977
2017-10-02T07:15:57.000Z,1003.949
2017-10-02T07:25:57.000Z,1003.967
2017-10-02T07:35:57.000Z,1003.757
2017-10-02T07:45:57.000Z,1003.547
2017-10-02T07:55:57.000Z,1003.618
2017-10-02T08:05:57.000Z,1003.706
2017-10-02T08:15:57.000Z,1003.839
2017-10-02T08:25:57.000Z,1004.03
2017-10-02T08:35:57.000Z,1003.872
2017-10-02T08:45:57.000Z,1004.066
2017-10-02T08:55:57.000Z,1004.118
2017-10-02T09:05:57.000Z,1004.274
2017-10-02T09:15:57.000Z,1004.296
2017-10-02T09:25:57.000Z,1004.218
2017-10-02T09:35:57.000Z,1003.94
2017-10-02T09:45:57.000Z,1003.749
2017-10-02T09:55:57.000Z,1003.666
2017-10-02T10:05:57.000Z,1003.659
2017-10-02T10:15:57.000Z,1003.618
2017-10-02T10:25:57.000Z,1003.866
2017-10-02T10:35:57.000Z,1003.845
2017-10-02T10:45:57.000Z,1003.956
2017-10-02T10:55:57.000Z,1003.923
2017-10-02T11:05:57.000Z,1003.802
2017-10-02T11:15:57.000Z,1003.875
2017-10-02T11:25:57.000Z,1003.659
2017-10-02T11:35:57.000Z,1003.77
2017-10-02T11:45:57.000Z,1003.738
2017-10-02T11:55:57.000Z,1003.823
2017-10-02T12:05:57.000Z,1004.036
2017-10-02T12:15:57.000Z,1004.017
2017-10-02T12:25:57.000Z,1004.062
2017-10-02T12:35:57.000Z,1003.992
2017-10-02T12:45:58.000Z,1003.984
2017-10-02T12:55:57.000Z,1004.059
2017-10-02T13:06:00.000Z,1003.859
2017-10-02T13:15:58.000Z,1003.918
2017-10-02T13:25:58.000Z,1003.816
2017-10-02T13:35:58.000Z,1003.82
2017-10-02T13:45:58.000Z,1003.711
2017-10-02T13:55:58.000Z,1003.964
2017-10-02T14:05:58.000Z,1003.907
2017-10-02T14:15:58.000Z,1003.978
2017-10-02T14:25:58.000Z,1003.919
2017-10-02T14:35:58.000Z,1003.729
2017-10-02T14:45:58.000Z,1003.661
2017-10-02T14:55:58.000Z,1003.864
2017-10-02T15:05:58.000Z,1003.741
2017-10-02T15:15:58.000Z,1003.712
2017-10-02T15:25:58.000Z,1003.783
2017-10-02T15:35:58.000Z,1003.918
2017-10-02T15:45:58.000Z,1004.063
2017-10-02T15:55:58.000Z,1004.235
2017-10-02T16:05:58.000Z,1004.44
2017-10-02T16:15:58.000Z,1004.378
2017-10-02T16:25:58.000Z,1004.232
2017-10-02T16:35:58.000Z,1004.215
2017-10-02T16:45:58.000Z,1004.554
2017-10-02T16:55:58.000Z,1004.536
2017-10-02T17:05:58.000Z,1004.302
2017-10-02T17:15:58.000Z,1004.423
2017-10-02T17:25:58.000Z,1004.397
2017-10-02T17:35:58.000Z,1004.381
2017-10-02T17:45:58.000Z,1004.49
2017-10-02T17:55:58.000Z,1004.625
2017-10-02T18:05:58.000Z,1004.5
2017-10-02T18:15:58.000Z,1004.487
2017-10-02T18:25:58.000Z,1004.632
2017-10-02T18:35:58.000Z,1004.636
2017-10-02T18:45:58.000Z,1004.618
2017-10-02T18:55:58.000Z,1004.647
2017-10-02T19:05:58.000Z,1004.755
2017-10-02T19:15:58.000Z,1004.727
2017-10-02T19:25:58.000Z,1004.804
2017-10-02T19:35:59.000Z,1004.699
2017-10-02T19:45:58.000Z,1004.5
2017-10-02T19:55:58.000Z,1004.423
2017-10-02T20:15:58.000Z,1004.39
2017-10-02T20:25:58.000Z,1004.473
2017-10-02T20:35:58.000Z,1004.585
2017-10-02T20:45:59.000Z,1004.487
2017-10-02T20:55:59.000Z,1004.613
2017-10-02T21:05:59.000Z,1004.456
2017-10-02T21:15:59.000Z,1004.58
2017-10-02T21:25:59.000Z,1004.606
2017-10-02T21:35:59.000Z,1004.58
2017-10-02T21:45:59.000Z,1004.707
2017-10-02T21:55:59.000Z,1004.515
2017-10-02T22:05:59.000Z,1004.393
2017-10-02T22:15:59.000Z,1004.321
2017-10-02T22:25:59.000Z,1004.397
2017-10-02T22:36:01.000Z,1004.647
2017-10-02T22:45:59.000Z,1004.516
2017-10-02T22:55:59.000Z,1004.43
2017-10-02T23:05:59.000Z,1004.397
2017-10-02T23:15:59.000Z,1004.263
2017-10-02T23:25:59.000Z,1004.256
2017-10-02T23:35:59.000Z,1004.353
2017-10-02T23:45:59.000Z,1004.53
2017-10-02T23:55:59.000Z,1004.575
